Time;durP1;ratioP1;P1;durP2;ratioP2;P2;SDS_P1;SDS_P2;PMS_P1;PMS_P2;Temp;Humidity;BMP_temperature;BMP_pressure;BME280_temperature;BME280_humidity;BME280_pressure;Samples;Min_cycle;Max_cycle;Signal;HPM_P1;HPM_P2
2022/07/08 00:01:40;;;;;;;3.17;1.20;;;22.00;58.00;;;;;;4477253;32;20085;-67
2022/07/08 00:04:06;;;;;;;3.40;0.90;;;22.00;58.10;;;;;;4490463;32;20211;-67
2022/07/08 00:06:31;;;;;;;2.58;1.02;;;22.00;58.10;;;;;;4490131;32;20286;-67
2022/07/08 00:08:57;;;;;;;3.03;1.08;;;22.00;58.00;;;;;;4491745;32;20088;-67
2022/07/08 00:11:26;;;;;;;2.25;0.90;;;22.00;58.00;;;;;;4491558;32;20065;-67
2022/07/08 00:13:52;;;;;;;2.70;0.90;;;22.00;58.10;;;;;;4491580;32;20093;-67
2022/07/08 00:16:18;;;;;;;1.70;0.90;;;22.00;58.10;;;;;;4490535;32;20088;-67
2022/07/08 00:18:44;;;;;;;4.00;1.08;;;22.00;58.00;;;;;;4491576;32;20270;-67
2022/07/08 00:21:09;;;;;;;2.63;0.90;;;22.00;58.10;;;;;;4491228;32;20120;-67
2022/07/08 00:23:35;;;;;;;2.95;1.23;;;22.00;58.10;;;;;;4490418;32;20565;-67
2022/07/08 00:26:01;;;;;;;3.65;1.00;;;22.00;58.10;;;;;;4464394;32;20159;-67
2022/07/08 00:28:27;;;;;;;2.22;0.95;;;22.00;58.10;;;;;;4491480;31;20207;-67
2022/07/08 00:30:53;;;;;;;2.78;1.08;;;21.90;58.10;;;;;;4494076;31;20066;-67
2022/07/08 00:33:18;;;;;;;4.97;1.45;;;21.90;58.10;;;;;;4494392;31;20081;-67
2022/07/08 00:35:44;;;;;;;3.15;1.00;;;22.00;58.20;;;;;;4494507;31;20069;-67
2022/07/08 00:38:10;;;;;;;2.10;1.00;;;22.00;58.20;;;;;;4494503;31;20215;-67
2022/07/08 00:40:36;;;;;;;1.33;0.82;;;21.90;58.10;;;;;;4494283;31;20053;-67
2022/07/08 00:43:02;;;;;;;2.65;1.10;;;21.90;58.10;;;;;;4493141;31;20212;-67
2022/07/08 00:45:28;;;;;;;4.13;1.00;;;22.00;58.20;;;;;;4493056;31;20081;-67
2022/07/08 00:47:53;;;;;;;2.30;0.90;;;22.00;58.20;;;;;;4492812;31;20431;-67
2022/07/08 00:50:20;;;;;;;2.95;0.80;;;22.00;58.20;;;;;;4492882;31;20259;-66
2022/07/08 00:52:47;;;;;;;2.15;0.93;;;22.00;58.20;;;;;;4493043;31;20503;-67
2022/07/08 00:55:13;;;;;;;2.35;1.00;;;21.90;58.10;;;;;;4492706;31;20091;-68
2022/07/08 00:57:39;;;;;;;2.65;1.10;;;21.90;58.10;;;;;;4493873;31;20069;-67
2022/07/08 01:00:06;;;;;;;4.90;1.05;;;22.00;58.20;;;;;;4494161;31;20415;-66
2022/07/08 01:02:32;;;;;;;1.80;0.73;;;21.90;58.20;;;;;;4493957;31;20214;-67
2022/07/08 01:04:59;;;;;;;1.92;0.73;;;21.90;58.20;;;;;;4493994;31;20092;-67
2022/07/08 01:07:25;;;;;;;4.88;1.00;;;21.90;58.20;;;;;;4493696;31;20093;-69
2022/07/08 01:09:51;;;;;;;1.33;0.73;;;21.90;58.20;;;;;;4494041;31;20081;-69
2022/07/08 01:12:17;;;;;;;4.18;1.00;;;21.90;58.20;;;;;;4479763;31;20230;-69
2022/07/08 01:14:43;;;;;;;1.92;0.70;;;21.90;58.20;;;;;;4494013;31;20132;-69
2022/07/08 01:17:10;;;;;;;3.40;1.15;;;21.90;58.20;;;;;;4493706;31;20116;-68
2022/07/08 01:19:35;;;;;;;2.72;0.90;;;21.90;58.20;;;;;;4493767;31;20073;-69
2022/07/08 01:22:02;;;;;;;1.80;0.50;;;21.90;58.20;;;;;;4493685;31;20411;-69
2022/07/08 01:24:27;;;;;;;1.77;0.63;;;21.90;58.30;;;;;;4492712;31;20088;-69
2022/07/08 01:26:55;;;;;;;3.28;1.00;;;21.90;58.30;;;;;;4493870;31;20199;-69
2022/07/08 01:29:21;;;;;;;2.42;0.80;;;21.90;58.30;;;;;;4479827;31;20422;-69
2022/07/08 01:31:51;;;;;;;1.77;0.70;;;21.90;58.30;;;;;;4493759;31;20500;-69
2022/07/08 01:34:17;;;;;;;2.88;0.80;;;21.90;58.30;;;;;;4493572;31;20084;-69
2022/07/08 01:36:43;;;;;;;2.80;0.70;;;21.90;58.30;;;;;;4493547;31;20073;-69
2022/07/08 01:39:08;;;;;;;2.38;0.90;;;21.90;58.30;;;;;;4492448;31;20150;-69
2022/07/08 01:41:34;;;;;;;3.40;0.80;;;21.90;58.30;;;;;;4492456;31;20065;-69
2022/07/08 01:44:00;;;;;;;2.50;0.98;;;21.90;58.30;;;;;;4491976;31;20207;-70
2022/07/08 01:46:26;;;;;;;2.75;0.80;;;21.90;58.30;;;;;;4493563;31;20079;-69
2022/07/08 01:48:52;;;;;;;1.80;0.80;;;21.90;58.50;;;;;;4493249;31;20085;-69
2022/07/08 01:51:18;;;;;;;1.42;0.50;;;21.90;58.50;;;;;;4493300;31;20221;-69
2022/07/08 01:53:45;;;;;;;2.08;0.70;;;21.90;58.50;;;;;;4492945;31;20175;-69
2022/07/08 01:56:10;;;;;;;2.83;0.70;;;21.90;58.50;;;;;;4493165;31;20112;-69
2022/07/08 01:58:36;;;;;;;1.98;0.80;;;21.80;58.50;;;;;;4493128;31;20073;-69
2022/07/08 02:01:02;;;;;;;2.63;1.00;;;21.90;58.60;;;;;;4491913;31;20532;-69
2022/07/08 02:03:28;;;;;;;1.45;0.57;;;21.90;58.60;;;;;;4478925;31;20153;-69
2022/07/08 02:05:54;;;;;;;2.95;1.00;;;21.90;58.60;;;;;;4493139;31;20206;-69
2022/07/08 02:08:20;;;;;;;2.97;1.02;;;21.90;58.60;;;;;;4491829;31;20274;-69
2022/07/08 02:13:30;;;;;;;1.85;0.70;;;21.90;58.60;;;;;;4492961;31;20163;-69
2022/07/08 02:15:56;;;;;;;1.02;0.60;;;21.90;58.60;;;;;;4492840;31;20206;-69
2022/07/08 02:18:21;;;;;;;2.25;1.00;;;21.80;58.60;;;;;;4491744;31;20084;-69
2022/07/08 02:20:47;;;;;;;2.38;0.80;;;21.80;58.60;;;;;;4492930;31;20371;-69
2022/07/08 02:23:13;;;;;;;1.90;0.75;;;21.80;58.60;;;;;;4492942;31;20065;-69
2022/07/08 02:25:39;;;;;;;2.58;0.65;;;21.80;58.60;;;;;;4492423;31;20483;-69
2022/07/08 02:28:05;;;;;;;1.42;0.57;;;21.80;58.60;;;;;;4492345;31;20075;-69
2022/07/08 02:30:30;;;;;;;1.55;0.80;;;21.80;58.60;;;;;;4492611;31;20079;-69
2022/07/08 02:32:56;;;;;;;2.28;0.80;;;21.80;58.60;;;;;;4492631;31;20399;-69
2022/07/08 02:35:22;;;;;;;0.93;0.60;;;21.80;58.60;;;;;;4478379;31;20069;-69
2022/07/08 02:37:48;;;;;;;1.40;0.90;;;21.80;58.60;;;;;;4492760;31;20158;-69
2022/07/08 02:40:14;;;;;;;2.40;0.47;;;21.80;58.60;;;;;;4492488;31;20379;-69
2022/07/08 02:42:39;;;;;;;1.58;0.70;;;21.80;58.60;;;;;;4491024;31;20210;-69
2022/07/08 02:45:06;;;;;;;2.13;0.80;;;21.80;58.60;;;;;;4492217;31;20124;-69
2022/07/08 02:47:31;;;;;;;2.60;0.70;;;21.80;58.60;;;;;;4492362;31;20092;-69
2022/07/08 02:49:57;;;;;;;1.40;0.70;;;21.70;58.50;;;;;;4491085;31;20073;-70
2022/07/08 02:52:23;;;;;;;1.17;0.57;;;21.80;58.60;;;;;;4492100;31;20076;-74
2022/07/08 02:54:50;;;;;;;2.30;0.70;;;21.70;58.60;;;;;;4492422;31;20349;-69
2022/07/08 02:57:15;;;;;;;2.05;0.75;;;21.70;58.60;;;;;;4492568;31;20110;-70
2022/07/08 02:59:41;;;;;;;1.90;0.70;;;21.70;58.60;;;;;;4491007;31;20075;-69
2022/07/08 03:02:07;;;;;;;2.53;0.70;;;21.70;58.60;;;;;;4492164;31;20080;-69
2022/07/08 03:04:33;;;;;;;1.42;0.50;;;21.70;58.60;;;;;;4491135;31;20411;-69
2022/07/08 03:06:59;;;;;;;1.95;0.80;;;21.70;58.60;;;;;;4492109;31;20211;-69
2022/07/08 03:09:24;;;;;;;2.50;1.00;;;21.70;58.60;;;;;;4491847;31;20477;-69
2022/07/08 03:11:50;;;;;;;1.25;0.63;;;21.70;58.60;;;;;;4491843;31;20080;-69
2022/07/08 03:14:16;;;;;;;1.63;0.60;;;21.70;58.60;;;;;;4491829;31;20418;-69
2022/07/08 03:16:42;;;;;;;3.13;0.70;;;21.70;58.60;;;;;;4491774;31;20150;-69
2022/07/08 03:19:08;;;;;;;2.38;0.60;;;21.70;58.60;;;;;;4491231;31;20386;-69
2022/07/08 03:21:33;;;;;;;2.33;0.80;;;21.70;58.60;;;;;;4492284;31;20150;-69
2022/07/08 03:23:59;;;;;;;1.35;0.70;;;21.70;58.60;;;;;;4490952;31;20116;-69
2022/07/08 03:26:25;;;;;;;2.00;0.70;;;21.70;58.60;;;;;;4491998;31;20090;-69
2022/07/08 03:28:51;;;;;;;1.60;0.80;;;21.70;58.60;;;;;;4491744;31;20081;-69
2022/07/08 03:31:17;;;;;;;2.95;0.50;;;21.70;58.70;;;;;;4491981;31;20072;-69
2022/07/08 03:33:46;;;;;;;1.60;0.77;;;21.70;58.70;;;;;;4491897;32;20131;-69
2022/07/08 03:36:12;;;;;;;1.92;0.80;;;21.70;58.70;;;;;;4491765;32;20073;-69
2022/07/08 03:38:38;;;;;;;2.53;0.77;;;21.70;58.70;;;;;;4491845;32;20154;-69
2022/07/08 03:41:23;;;;;;;2.05;0.68;;;21.70;58.70;;;;;;4492043;32;20073;-69
2022/07/08 03:43:53;;;;;;;1.73;0.63;;;21.70;58.70;;;;;;4492160;32;20077;-69
2022/07/08 03:46:20;;;;;;;3.20;0.88;;;21.70;58.70;;;;;;4492085;32;20073;-69
2022/07/08 03:48:47;;;;;;;1.48;0.60;;;21.70;58.70;;;;;;4491867;32;20099;-69
2022/07/08 03:51:14;;;;;;;2.13;0.70;;;21.70;58.70;;;;;;4491599;32;20083;-69
2022/07/08 03:53:40;;;;;;;1.52;0.60;;;21.70;58.80;;;;;;4491988;32;20120;-69
2022/07/08 03:56:07;;;;;;;1.77;0.80;;;21.70;58.70;;;;;;4491752;32;20519;-69
2022/07/08 03:58:34;;;;;;;3.25;0.63;;;21.70;58.80;;;;;;4490844;32;20069;-69
2022/07/08 04:01:00;;;;;;;1.95;0.55;;;21.70;58.80;;;;;;4491793;32;20198;-69
2022/07/08 04:03:26;;;;;;;1.67;0.60;;;21.70;58.80;;;;;;4491727;31;20081;-69
2022/07/08 04:05:53;;;;;;;1.00;0.47;;;21.60;58.70;;;;;;4494454;31;20600;-69
2022/07/08 04:08:19;;;;;;;1.42;0.60;;;21.60;58.70;;;;;;4494423;31;20096;-69
2022/07/08 04:10:45;;;;;;;2.17;0.55;;;21.60;58.70;;;;;;4493613;31;20136;-70
2022/07/08 04:13:11;;;;;;;1.55;0.47;;;21.60;58.70;;;;;;4494679;31;20511;-69
2022/07/08 04:15:36;;;;;;;1.70;0.80;;;21.60;58.80;;;;;;4494676;31;20085;-69
2022/07/08 04:18:03;;;;;;;1.35;0.50;;;21.60;58.80;;;;;;4494562;31;20096;-69
2022/07/08 04:20:29;;;;;;;1.45;0.60;;;21.60;58.80;;;;;;4493530;31;20527;-69
2022/07/08 04:22:54;;;;;;;2.65;0.70;;;21.60;58.70;;;;;;4494455;31;20130;-69
2022/07/08 04:25:20;;;;;;;1.38;0.65;;;21.60;58.70;;;;;;4494518;31;20611;-69
2022/07/08 04:27:47;;;;;;;2.97;0.57;;;21.60;59.70;;;;;;4493404;31;20422;-69
2022/07/08 04:30:13;;;;;;;1.58;0.50;;;21.60;58.80;;;;;;4493107;31;20140;-69
2022/07/08 04:32:38;;;;;;;1.60;0.50;;;21.60;58.80;;;;;;4494501;31;20061;-69
2022/07/08 04:35:05;;;;;;;1.48;0.43;;;21.60;58.80;;;;;;4494344;31;20135;-69
2022/07/08 04:37:31;;;;;;;2.88;0.70;;;21.60;58.90;;;;;;4494060;31;20076;-69
2022/07/08 04:39:57;;;;;;;1.05;0.65;;;21.60;58.80;;;;;;4494515;31;20182;-69
2022/07/08 04:42:23;;;;;;;1.40;0.52;;;21.60;58.80;;;;;;4494078;31;20394;-68
2022/07/08 04:44:48;;;;;;;2.10;0.70;;;21.60;58.80;;;;;;4493169;31;20065;-69
2022/07/08 04:47:14;;;;;;;1.17;0.60;;;21.60;58.90;;;;;;4493947;31;20076;-70
2022/07/08 04:49:40;;;;;;;1.50;0.60;;;21.60;58.90;;;;;;4493965;31;20394;-69
2022/07/08 04:52:06;;;;;;;1.75;0.75;;;21.60;58.90;;;;;;4494476;31;20065;-69
2022/07/08 04:54:34;;;;;;;1.90;0.65;;;21.60;58.90;;;;;;4494086;31;20282;-69
2022/07/08 04:57:00;;;;;;;3.65;0.90;;;21.60;58.90;;;;;;4494114;31;20239;-69
2022/07/08 04:59:26;;;;;;;1.55;0.60;;;21.60;58.90;;;;;;4493735;31;20169;-69
2022/07/08 05:01:52;;;;;;;2.67;0.70;;;21.60;58.90;;;;;;4493907;31;20215;-68
2022/07/08 05:04:18;;;;;;;0.93;0.50;;;21.60;58.90;;;;;;4494169;31;20077;-69
2022/07/08 05:06:43;;;;;;;1.60;0.50;;;21.60;59.80;;;;;;4493556;31;20073;-69
2022/07/08 05:09:09;;;;;;;1.45;0.50;;;21.60;58.90;;;;;;4494118;31;20124;-69
2022/07/08 05:11:35;;;;;;;2.25;0.80;;;21.60;58.90;;;;;;4493844;31;20121;-68
2022/07/08 05:14:01;;;;;;;2.10;0.70;;;21.60;59.00;;;;;;4493853;31;20143;-69
2022/07/08 05:16:27;;;;;;;2.25;0.60;;;21.60;58.90;;;;;;4493713;31;20413;-69
2022/07/08 05:18:53;;;;;;;2.15;0.63;;;21.60;58.90;;;;;;4493474;31;20065;-69
2022/07/08 05:21:18;;;;;;;1.42;0.73;;;21.60;58.90;;;;;;4493601;31;20070;-69
2022/07/08 05:23:44;;;;;;;1.02;0.60;;;21.60;58.90;;;;;;4493700;31;20166;-68
2022/07/08 05:26:10;;;;;;;1.27;0.50;;;21.60;58.90;;;;;;4493361;31;20093;-69
2022/07/08 05:28:36;;;;;;;1.48;0.50;;;21.60;58.90;;;;;;4492554;31;20380;-69
2022/07/08 05:31:02;;;;;;;2.08;0.50;;;21.60;58.90;;;;;;4493280;31;20269;-69
2022/07/08 05:33:27;;;;;;;1.77;0.60;;;21.60;58.90;;;;;;4479605;31;20084;-69
2022/07/08 05:35:54;;;;;;;2.13;0.55;;;21.60;59.00;;;;;;4492443;31;20182;-68
2022/07/08 05:38:19;;;;;;;1.88;0.60;;;21.60;59.00;;;;;;4493325;31;20092;-69
2022/07/08 05:40:45;;;;;;;1.80;0.60;;;21.60;59.00;;;;;;4492333;31;20112;-68
2022/07/08 05:43:11;;;;;;;2.08;0.80;;;21.60;59.00;;;;;;4492191;31;20077;-69
2022/07/08 05:45:37;;;;;;;1.30;0.50;;;21.50;58.90;;;;;;4492311;31;20406;-69
2022/07/08 05:48:03;;;;;;;2.40;0.40;;;21.60;59.00;;;;;;4493286;31;20069;-69
2022/07/08 05:50:29;;;;;;;1.77;0.57;;;21.50;59.10;;;;;;4493009;31;20185;-69
2022/07/08 05:52:55;;;;;;;2.83;0.80;;;21.60;59.10;;;;;;4492953;31;20096;-69
2022/07/08 05:55:21;;;;;;;2.20;0.60;;;21.60;59.10;;;;;;4493233;31;20160;-69
2022/07/08 05:57:47;;;;;;;1.60;0.47;;;21.60;59.10;;;;;;4491805;31;20166;-68
2022/07/08 06:00:14;;;;;;;1.35;0.57;;;21.60;59.10;;;;;;4493349;31;20175;-69
2022/07/08 06:02:40;;;;;;;1.40;0.60;;;21.50;59.10;;;;;;4492820;31;20109;-69
2022/07/08 06:05:06;;;;;;;1.73;0.52;;;21.50;59.00;;;;;;4493312;31;20070;-69
2022/07/08 06:07:33;;;;;;;2.00;0.57;;;21.60;59.10;;;;;;4492641;31;20095;-68
2022/07/08 06:10:00;;;;;;;0.80;0.40;;;21.50;59.00;;;;;;4492934;31;20128;-69
2022/07/08 06:12:25;;;;;;;2.35;0.60;;;21.60;59.10;;;;;;4492904;31;20084;-68
2022/07/08 06:14:51;;;;;;;0.93;0.45;;;21.60;59.10;;;;;;4492582;31;20069;-68
2022/07/08 06:17:17;;;;;;;2.13;0.60;;;21.60;59.10;;;;;;4492838;31;20147;-69
2022/07/08 06:19:43;;;;;;;1.77;0.60;;;21.60;59.10;;;;;;4492752;31;20412;-68
2022/07/08 06:22:09;;;;;;;2.28;0.70;;;21.60;59.10;;;;;;4492702;31;20135;-69
2022/07/08 06:24:35;;;;;;;2.20;0.55;;;21.60;59.10;;;;;;4492430;31;20135;-69
2022/07/08 06:27:01;;;;;;;1.95;0.50;;;21.60;59.10;;;;;;4492216;31;20128;-69
2022/07/08 06:29:26;;;;;;;1.67;0.52;;;21.60;59.10;;;;;;4492678;31;20136;-69
2022/07/08 06:31:52;;;;;;;1.60;0.55;;;21.60;59.10;;;;;;4491278;31;20081;-72
2022/07/08 06:34:18;;;;;;;1.40;0.50;;;21.60;59.10;;;;;;4492833;31;20202;-69
2022/07/08 06:36:44;;;;;;;3.08;0.77;;;21.60;59.20;;;;;;4492172;31;20075;-68
2022/07/08 06:39:09;;;;;;;2.53;0.65;;;21.60;59.30;;;;;;4492568;31;20219;-69
2022/07/08 06:41:35;;;;;;;3.53;0.80;;;21.60;59.20;;;;;;4492158;31;20128;-69
2022/07/08 06:44:01;;;;;;;5.22;0.85;;;21.60;59.30;;;;;;4492429;31;20123;-69
2022/07/08 06:46:28;;;;;;;3.35;1.17;;;21.60;59.40;;;;;;4491346;31;20607;-69
2022/07/08 06:48:54;;;;;;;2.63;0.80;;;21.60;59.60;;;;;;4492391;31;20081;-69
2022/07/08 06:51:20;;;;;;;3.83;0.88;;;21.70;59.70;;;;;;4492195;31;20084;-69
2022/07/08 06:56:30;;;;;;;2.95;0.73;;;21.70;60.00;;;;;;4492703;31;20274;-69
2022/07/08 06:58:57;;;;;;;4.15;1.00;;;21.70;60.00;;;;;;4491228;31;20077;-70
2022/07/08 07:01:23;;;;;;;10.75;1.27;;;21.70;60.00;;;;;;4492160;31;20533;-69
2022/07/08 07:03:48;;;;;;;12.73;1.42;;;21.70;60.10;;;;;;4492162;31;20057;-69
2022/07/08 07:06:14;;;;;;;5.85;1.15;;;21.70;60.20;;;;;;4491108;31;20124;-68
2022/07/08 07:08:41;;;;;;;6.10;1.27;;;21.70;60.20;;;;;;4492128;31;20170;-68
2022/07/08 07:11:07;;;;;;;4.43;1.02;;;21.70;60.10;;;;;;4492096;31;20142;-68
2022/07/08 07:13:32;;;;;;;4.65;0.90;;;21.70;60.20;;;;;;4491795;31;20542;-68
2022/07/08 07:15:58;;;;;;;6.25;0.98;;;21.70;60.20;;;;;;4491216;31;20061;-69
2022/07/08 07:18:25;;;;;;;2.95;1.08;;;21.70;60.30;;;;;;4492012;31;20277;-69
2022/07/08 07:20:51;;;;;;;3.97;1.08;;;21.70;60.30;;;;;;4492138;31;20113;-69
2022/07/08 07:23:17;;;;;;;5.75;1.45;;;21.70;60.40;;;;;;4491873;31;20383;-69
2022/07/08 07:25:43;;;;;;;5.50;1.33;;;21.70;60.40;;;;;;4490718;31;20085;-68
2022/07/08 07:28:12;;;;;;;3.08;0.90;;;21.70;60.40;;;;;;4490874;31;20091;-69
2022/07/08 07:30:37;;;;;;;3.85;1.00;;;21.70;60.40;;;;;;4491905;31;20080;-69
2022/07/08 07:33:03;;;;;;;3.10;1.17;;;21.70;60.40;;;;;;4491875;31;20083;-69
2022/07/08 07:35:29;;;;;;;4.93;1.10;;;21.70;60.40;;;;;;4492169;32;20124;-69
2022/07/08 07:37:55;;;;;;;3.80;0.98;;;21.70;60.50;;;;;;4492022;31;20484;-69
2022/07/08 07:40:21;;;;;;;5.63;1.20;;;21.70;60.40;;;;;;4493916;31;20227;-69
2022/07/08 07:42:46;;;;;;;7.32;1.40;;;21.70;60.60;;;;;;4494772;31;20430;-70
2022/07/08 07:45:12;;;;;;;7.45;1.35;;;21.70;60.50;;;;;;4480947;31;20069;-69
2022/07/08 07:47:38;;;;;;;7.40;1.50;;;21.70;60.60;;;;;;4495034;31;20081;-69
2022/07/08 07:50:04;;;;;;;6.38;1.30;;;21.70;60.60;;;;;;4494734;31;20607;-69
2022/07/08 07:52:30;;;;;;;4.65;1.40;;;21.70;60.70;;;;;;4494710;31;20675;-69
2022/07/08 07:54:56;;;;;;;4.45;1.35;;;21.70;60.70;;;;;;4495232;31;20169;-69
2022/07/08 07:57:22;;;;;;;4.85;1.50;;;21.70;60.70;;;;;;4493838;31;20161;-69
2022/07/08 07:59:49;;;;;;;5.25;1.30;;;21.70;60.80;;;;;;4495225;31;20207;-69
2022/07/08 08:02:14;;;;;;;3.85;1.20;;;21.70;60.80;;;;;;4494667;31;20468;-70
2022/07/08 08:04:41;;;;;;;6.22;1.83;;;21.80;60.90;;;;;;4494756;31;20270;-70
2022/07/08 08:07:07;;;;;;;2.72;1.23;;;21.70;61.00;;;;;;4494914;31;20135;-70
2022/07/08 08:09:33;;;;;;;4.50;1.20;;;21.80;61.10;;;;;;4494441;31;20089;-70
2022/07/08 08:11:59;;;;;;;4.25;1.27;;;21.80;61.10;;;;;;4494667;31;20087;-70
2022/07/08 08:14:25;;;;;;;3.58;1.00;;;21.70;61.00;;;;;;4494366;31;20683;-70
2022/07/08 08:16:52;;;;;;;3.35;1.02;;;21.80;61.00;;;;;;4494632;31;20202;-70
2022/07/08 08:19:18;;;;;;;5.28;1.10;;;21.80;61.10;;;;;;4494527;31;20084;-70
2022/07/08 08:21:44;;;;;;;4.47;1.33;;;21.80;61.20;;;;;;4494168;31;20403;-70
2022/07/08 08:24:10;;;;;;;4.55;1.25;;;21.80;61.10;;;;;;4494463;31;20088;-69
2022/07/08 08:26:35;;;;;;;4.78;1.25;;;21.80;61.10;;;;;;4494434;31;20147;-69
2022/07/08 08:29:01;;;;;;;5.38;1.33;;;21.80;61.20;;;;;;4494408;31;20280;-69
2022/07/08 08:31:28;;;;;;;6.43;1.60;;;21.80;61.10;;;;;;4494419;31;20061;-69
2022/07/08 08:33:54;;;;;;;8.90;1.30;;;21.90;61.30;;;;;;4494640;31;20157;-69
2022/07/08 08:36:20;;;;;;;5.70;1.40;;;21.80;61.30;;;;;;4494346;31;20073;-69
2022/07/08 08:38:46;;;;;;;4.22;1.30;;;21.90;61.30;;;;;;4480125;31;20081;-69
2022/07/08 08:41:12;;;;;;;4.82;1.15;;;21.80;61.20;;;;;;4494433;31;20073;-70
2022/07/08 08:43:38;;;;;;;4.53;1.10;;;21.90;61.30;;;;;;4494155;31;20062;-69
2022/07/08 08:46:05;;;;;;;4.43;1.42;;;21.80;61.20;;;;;;4494196;31;20532;-68
2022/07/08 08:48:36;;;;;;;3.83;1.27;;;21.90;61.30;;;;;;4494142;31;20186;-68
2022/07/08 08:51:05;;;;;;;6.47;1.33;;;21.90;61.40;;;;;;4493623;31;20293;-68
2022/07/08 08:53:42;;;;;;;5.43;1.35;;;21.90;61.50;;;;;;4494433;31;20217;-68
2022/07/08 08:56:13;;;;;;;4.75;1.50;;;21.90;61.50;;;;;;4494368;31;20077;-68
2022/07/08 08:58:40;;;;;;;4.47;0.98;;;21.90;61.40;;;;;;4479908;31;20518;-68
2022/07/08 09:01:08;;;;;;;4.28;1.30;;;21.90;61.30;;;;;;4493973;31;20419;-68
2022/07/08 09:03:35;;;;;;;3.38;1.23;;;21.90;61.30;;;;;;4493894;31;20088;-68
2022/07/08 09:06:02;;;;;;;4.55;1.08;;;21.90;61.30;;;;;;4493611;31;20121;-68
2022/07/08 09:08:28;;;;;;;8.18;1.65;;;22.00;61.50;;;;;;4493727;31;20226;-68
2022/07/08 09:10:54;;;;;;;4.90;1.17;;;22.00;61.40;;;;;;4492758;31;20103;-68
2022/07/08 09:13:23;;;;;;;5.72;1.50;;;22.00;61.40;;;;;;4494076;31;20109;-68
2022/07/08 09:15:50;;;;;;;3.80;1.40;;;22.00;61.30;;;;;;4492509;31;20069;-68
2022/07/08 09:18:19;;;;;;;4.03;1.30;;;22.00;61.30;;;;;;4493741;31;20128;-69
2022/07/08 09:20:53;;;;;;;10.48;1.60;;;22.00;61.50;;;;;;4493675;31;20143;-68
2022/07/08 09:23:30;;;;;;;5.50;1.38;;;22.00;61.60;;;;;;4493987;31;20073;-69
2022/07/08 09:26:01;;;;;;;5.55;1.70;;;22.00;61.60;;;;;;4493953;31;20246;-69
2022/07/08 09:28:37;;;;;;;6.00;1.20;;;22.00;61.50;;;;;;4493724;31;20113;-68
2022/07/08 09:31:05;;;;;;;6.30;1.38;;;22.00;61.50;;;;;;4493939;31;20085;-69
2022/07/08 09:33:33;;;;;;;4.03;1.27;;;22.10;61.70;;;;;;4493487;31;20128;-69
2022/07/08 09:36:01;;;;;;;4.00;1.50;;;22.10;61.60;;;;;;4493462;31;20073;-71
2022/07/08 09:38:35;;;;;;;3.60;1.10;;;22.10;61.60;;;;;;4493554;31;20088;-69
2022/07/08 09:41:12;;;;;;;;;;;22.10;61.70;;;;;;4494366;31;20174;-68
2022/07/08 09:43:49;;;;;;;5.50;1.05;;;22.10;61.70;;;;;;4493296;31;20091;-68
2022/07/08 09:46:16;;;;;;;4.43;1.40;;;22.10;61.70;;;;;;4493419;31;20491;-69
2022/07/08 09:48:42;;;;;;;5.78;1.40;;;22.10;61.60;;;;;;4493002;31;20085;-68
2022/07/08 09:51:08;;;;;;;2.33;1.10;;;22.10;61.60;;;;;;4492974;31;20411;-68
2022/07/08 09:53:37;;;;;;;6.05;1.30;;;22.10;61.70;;;;;;4493187;31;20173;-69
2022/07/08 09:56:03;;;;;;;2.78;1.27;;;22.10;61.70;;;;;;4493319;31;20064;-68
2022/07/08 09:58:32;;;;;;;4.50;1.48;;;22.10;61.60;;;;;;4478999;31;20100;-68
2022/07/08 10:01:00;;;;;;;6.32;1.48;;;22.10;61.70;;;;;;4493114;31;20536;-68
2022/07/08 10:03:28;;;;;;;5.60;1.20;;;22.10;61.60;;;;;;4492381;31;20223;-68
2022/07/08 10:05:54;;;;;;;10.80;1.40;;;22.10;61.70;;;;;;4493064;31;20061;-68
2022/07/08 10:08:21;;;;;;;4.03;1.17;;;22.10;61.60;;;;;;4492822;31;20061;-68
2022/07/08 10:10:53;;;;;;;6.38;1.38;;;22.10;61.60;;;;;;4492605;31;20422;-68
2022/07/08 10:13:21;;;;;;;4.63;1.35;;;22.20;61.60;;;;;;4493202;31;20416;-68
2022/07/08 10:15:49;;;;;;;9.18;1.40;;;22.20;61.50;;;;;;4492795;31;20423;-68
2022/07/08 10:18:36;;;;;;;2.97;1.27;;;22.20;61.50;;;;;;4492767;31;20088;-70
2022/07/08 10:21:04;;;;;;;5.97;1.40;;;22.20;61.50;;;;;;4492822;31;20073;-70
2022/07/08 10:23:39;;;;;;;4.50;1.15;;;22.20;61.50;;;;;;4491656;31;20414;-68
2022/07/08 10:26:07;;;;;;;6.05;1.45;;;22.20;61.50;;;;;;4492674;31;20418;-68
2022/07/08 10:28:38;;;;;;;4.43;1.30;;;22.20;61.50;;;;;;4492661;31;20069;-68
2022/07/08 10:31:22;;;;;;;3.67;1.27;;;22.20;61.60;;;;;;4492975;31;20203;-68
2022/07/08 10:33:49;;;;;;;5.28;1.58;;;22.30;61.70;;;;;;4492738;31;20080;-68
2022/07/08 10:36:20;;;;;;;5.50;1.42;;;22.20;61.70;;;;;;4492441;31;20077;-69
2022/07/08 10:38:46;;;;;;;3.63;1.10;;;22.30;61.70;;;;;;4491527;31;20085;-68
2022/07/08 10:41:17;;;;;;;6.95;1.30;;;22.30;61.70;;;;;;4492670;31;20157;-68
2022/07/08 10:43:54;;;;;;;4.20;1.20;;;22.30;61.70;;;;;;4492292;31;20417;-68
2022/07/08 10:46:29;;;;;;;5.55;1.20;;;22.30;61.80;;;;;;4492138;31;20087;-68
2022/07/08 10:48:57;;;;;;;7.78;1.23;;;22.30;61.80;;;;;;4491032;31;20116;-68
2022/07/08 10:51:26;;;;;;;4.75;1.08;;;22.30;61.70;;;;;;4492097;31;20081;-68
2022/07/08 10:53:58;;;;;;;5.32;1.48;;;22.40;61.90;;;;;;4492508;31;20065;-68
2022/07/08 10:56:56;;;;;;;9.50;1.42;;;22.40;62.00;;;;;;4491996;31;20557;-68
2022/07/08 10:59:38;;;;;;;7.85;1.85;;;22.40;62.10;;;;;;4492091;31;20502;-68
2022/07/08 11:02:16;;;;;;;7.00;1.52;;;22.40;62.30;;;;;;4492378;31;20084;-69
2022/07/08 11:04:47;;;;;;;4.82;1.05;;;22.40;62.40;;;;;;4492442;31;20187;-68
2022/07/08 11:07:28;;;;;;;3.53;1.40;;;22.40;62.40;;;;;;4492004;31;20596;-69
2022/07/08 11:10:10;;;;;;;5.63;1.38;;;22.40;62.60;;;;;;4490799;31;20089;-68
2022/07/08 11:12:39;;;;;;;4.13;1.52;;;22.50;62.70;;;;;;4492215;31;20128;-68
2022/07/08 11:15:12;;;;;;;6.13;1.15;;;22.50;63.50;;;;;;4491905;31;20524;-68
2022/07/08 11:17:41;;;;;;;4.85;1.20;;;22.50;63.60;;;;;;4492131;31;20198;-68
2022/07/08 11:20:09;;;;;;;4.50;1.23;;;22.50;62.70;;;;;;4490690;31;20073;-68
2022/07/08 11:22:37;;;;;;;4.38;1.63;;;22.50;62.80;;;;;;4491873;31;20077;-68
2022/07/08 11:25:06;;;;;;;6.68;1.67;;;22.60;62.80;;;;;;4492048;31;20166;-69
2022/07/08 11:27:33;;;;;;;4.55;1.30;;;22.60;62.80;;;;;;4491694;31;20107;-68
2022/07/08 11:30:01;;;;;;;4.78;1.30;;;22.60;62.80;;;;;;4491760;31;20112;-68
2022/07/08 11:32:27;;;;;;;4.20;1.30;;;22.60;62.80;;;;;;4491688;31;20077;-69
2022/07/08 11:34:55;;;;;;;5.22;1.35;;;22.60;62.70;;;;;;4490943;31;20087;-68
2022/07/08 11:37:21;;;;;;;4.35;1.15;;;22.60;62.70;;;;;;4491853;32;20127;-68
2022/07/08 11:39:47;;;;;;;3.70;1.10;;;22.60;62.70;;;;;;4491920;32;20077;-68
2022/07/08 11:42:14;;;;;;;4.00;1.13;;;22.60;62.70;;;;;;4491894;32;20087;-68
2022/07/08 11:44:41;;;;;;;2.72;1.20;;;22.60;62.70;;;;;;4491709;32;20142;-68
2022/07/08 11:47:07;;;;;;;4.07;1.30;;;22.60;62.80;;;;;;4491941;32;20522;-68
2022/07/08 11:49:39;;;;;;;4.78;1.30;;;22.60;62.80;;;;;;4491888;32;20093;-68
2022/07/08 11:52:05;;;;;;;3.47;1.10;;;22.60;62.80;;;;;;4491397;32;20207;-68
2022/07/08 11:54:31;;;;;;;4.65;1.48;;;22.60;62.80;;;;;;4491522;32;20136;-68
2022/07/08 11:56:59;;;;;;;3.28;1.40;;;22.60;62.70;;;;;;4491846;32;20077;-68
2022/07/08 11:59:27;;;;;;;5.15;1.35;;;22.60;62.70;;;;;;4491509;32;20136;-68
2022/07/08 12:01:55;;;;;;;5.28;1.30;;;22.60;62.50;;;;;;4492035;32;20103;-68
2022/07/08 12:04:21;;;;;;;4.75;1.40;;;22.60;62.50;;;;;;4490639;32;20417;-68
2022/07/08 12:06:50;;;;;;;8.57;1.85;;;22.60;62.40;;;;;;4491912;32;20211;-68
2022/07/08 12:09:17;;;;;;;5.40;1.50;;;22.60;62.50;;;;;;4491464;32;20107;-68
2022/07/08 12:11:46;;;;;;;6.63;2.03;;;22.60;62.50;;;;;;4491679;32;20154;-68
2022/07/08 12:14:13;;;;;;;5.80;2.10;;;22.60;62.50;;;;;;4491781;32;20081;-68
2022/07/08 12:16:50;;;;;;;7.93;2.67;;;22.60;62.60;;;;;;4491646;32;20065;-68
2022/07/08 12:19:33;;;;;;;7.00;2.38;;;22.60;62.80;;;;;;4490749;32;20124;-68
2022/07/08 12:22:04;;;;;;;;;;;22.60;62.60;;;;;;4492433;32;20266;-68
2022/07/08 12:24:40;;;;;;;5.82;1.92;;;22.60;62.70;;;;;;4491900;31;20075;-68
2022/07/08 12:27:15;;;;;;;5.50;2.10;;;22.60;62.70;;;;;;4494865;31;20097;-69
2022/07/08 12:29:43;;;;;;;10.80;2.38;;;22.60;63.60;;;;;;4494652;31;20105;-68
2022/07/08 12:32:10;;;;;;;5.40;2.10;;;22.60;62.60;;;;;;4494381;31;20087;-68
2022/07/08 12:34:37;;;;;;;4.78;1.80;;;22.70;62.90;;;;;;4494709;31;20093;-68
2022/07/08 12:37:19;;;;;;;8.60;2.33;;;22.70;62.90;;;;;;4494397;31;20089;-69
2022/07/08 12:39:46;;;;;;;5.78;1.60;;;22.70;63.00;;;;;;4494719;31;20077;-70
2022/07/08 12:42:12;;;;;;;15.52;2.40;;;22.70;63.10;;;;;;4494282;31;20608;-68
2022/07/08 12:44:39;;;;;;;5.32;1.73;;;22.70;63.10;;;;;;4493986;31;20077;-68
2022/07/08 12:47:08;;;;;;;8.30;1.98;;;22.70;63.20;;;;;;4494201;31;20150;-69
2022/07/08 12:49:37;;;;;;;4.53;1.60;;;22.80;63.40;;;;;;4494147;31;20120;-70
2022/07/08 12:52:05;;;;;;;9.82;2.13;;;22.80;63.50;;;;;;4493988;31;20227;-69
2022/07/08 12:54:31;;;;;;;4.03;1.83;;;22.80;63.70;;;;;;4493071;31;20069;-69